Holsbeek, Belgium
Current Conditions -  °F | °C
As of 1:20 PM on Monday 24 Nov 2014 (Local Time) from EBBR Reporting Station
Few Clouds Few Clouds  
Wind Chill: 50°   Ceiling: Unl
Heat Index: 50°   Visibility: 6mi
Dew Point: 39°   Wind: 2mph
Humidity: 66%   Direction: NA
Pressure: 30.3"   Gusts: NA
Location:  50.92°N, 4.76°E
Report Text: EBBR 241220Z VRB02KT 9999 FEW030 10/04 Q1026 NOSIG
Loading
Personal Weather Stations






























Interactive Weather Map New forecast layout! Learn more

10-Day Weather Forecast

Advertisements
Track Severe Weather on mobile